createdAt,value
2018-07-05T00:03:41.051Z,5.90
2018-07-05T00:09:01.464Z,6.63
2018-07-05T00:14:21.920Z,6.53
2018-07-05T00:19:42.288Z,7.10
2018-07-05T00:25:02.498Z,7.10
2018-07-05T00:30:23.241Z,9.93
2018-07-05T00:35:43.444Z,9.70
2018-07-05T00:41:03.946Z,12.50
2018-07-05T00:46:24.455Z,11.53
2018-07-05T00:51:44.860Z,11.27
2018-07-05T00:57:05.013Z,13.80
2018-07-05T01:02:25.449Z,10.20
2018-07-05T01:07:45.766Z,9.20
2018-07-05T01:13:06.311Z,9.07
2018-07-05T01:18:26.656Z,13.10
2018-07-05T01:23:47.004Z,10.27
2018-07-05T01:29:07.123Z,13.40
2018-07-05T01:34:27.713Z,10.97
2018-07-05T01:39:48.260Z,11.47
2018-07-05T01:45:08.691Z,16.70
2018-07-05T01:50:29.049Z,10.00
2018-07-05T01:55:49.392Z,10.97
2018-07-05T02:01:09.760Z,16.67
2018-07-05T02:06:30.107Z,14.60
2018-07-05T02:11:50.517Z,9.07
2018-07-05T02:17:10.885Z,11.93
2018-07-05T02:22:31.553Z,10.73
2018-07-05T02:27:51.848Z,14.37
2018-07-05T02:33:12.164Z,15.30
2018-07-05T02:38:32.348Z,13.50
2018-07-05T02:43:52.692Z,9.43
2018-07-05T02:49:13.083Z,10.50
2018-07-05T02:54:33.395Z,8.73
2018-07-05T02:59:53.636Z,9.70
2018-07-05T03:05:14.360Z,11.67
2018-07-05T03:10:34.868Z,14.30
2018-07-05T03:15:55.369Z,11.23
2018-07-05T03:21:15.736Z,11.60
2018-07-05T03:26:35.955Z,14.87
2018-07-05T03:31:56.308Z,12.50
2018-07-05T03:37:16.695Z,11.13
2018-07-05T03:42:37.012Z,15.63
2018-07-05T03:47:57.423Z,11.50
2018-07-05T03:53:17.883Z,13.47
2018-07-05T03:58:32.266Z,10.80
2018-07-05T04:03:52.643Z,15.63
2018-07-05T04:09:12.935Z,11.93
2018-07-05T04:14:33.189Z,16.27
2018-07-05T04:19:53.347Z,9.73
2018-07-05T04:25:13.890Z,15.30
2018-07-05T04:30:34.255Z,15.70
2018-07-05T04:35:54.469Z,10.83
2018-07-05T04:41:14.924Z,14.10
2018-07-05T04:46:35.132Z,13.03
2018-07-05T04:51:55.496Z,9.00
2018-07-05T04:57:15.817Z,13.37
2018-07-05T05:02:36.235Z,11.90
2018-07-05T05:07:56.452Z,12.63
2018-07-05T05:13:16.775Z,18.87
2018-07-05T05:18:37.179Z,20.30
2018-07-05T05:23:57.342Z,11.43
2018-07-05T05:29:17.657Z,9.30
2018-07-05T05:34:38.056Z,18.13
2018-07-05T05:39:58.723Z,15.20
2018-07-05T05:45:19.212Z,17.50
2018-07-05T05:50:39.547Z,14.83
2018-07-05T05:55:59.958Z,16.60
2018-07-05T06:01:20.463Z,23.57
2018-07-05T06:06:40.643Z,15.07
2018-07-05T06:12:01.079Z,21.67
2018-07-05T06:17:21.314Z,18.13
2018-07-05T06:22:41.500Z,20.83
2018-07-05T06:28:02.113Z,30.43
2018-07-05T06:33:22.479Z,24.10
2018-07-05T06:38:42.824Z,18.73
2018-07-05T06:44:03.545Z,19.70
2018-07-05T06:49:23.919Z,12.67
2018-07-05T06:54:44.236Z,18.63
2018-07-05T07:00:04.577Z,8.97
2018-07-05T07:05:25.509Z,13.13
2018-07-05T07:10:45.824Z,11.33
2018-07-05T07:16:06.038Z,15.97
2018-07-05T07:21:26.489Z,13.13
2018-07-05T07:26:46.746Z,8.47
2018-07-05T07:32:07.182Z,9.20
2018-07-05T07:37:27.360Z,10.80
2018-07-05T07:42:29.028Z,7.80
2018-07-05T07:47:30.737Z,11.17
2018-07-05T07:52:32.170Z,10.10
2018-07-05T07:57:33.848Z,6.83
2018-07-05T08:02:35.540Z,7.07
2018-07-05T08:07:36.987Z,9.17
2018-07-05T08:12:38.411Z,9.07
2018-07-05T08:17:40.043Z,10.17
2018-07-05T08:22:41.706Z,11.40
2018-07-05T08:27:43.236Z,12.50
2018-07-05T08:32:44.763Z,13.90
2018-07-05T08:37:46.214Z,7.23
2018-07-05T08:42:48.292Z,11.40
2018-07-05T08:47:49.843Z,8.87
2018-07-05T08:52:51.532Z,8.17
2018-07-05T08:57:53.101Z,9.73
2018-07-05T09:02:54.797Z,10.80
2018-07-05T09:07:56.460Z,16.33
2018-07-05T09:12:57.953Z,15.60
2018-07-05T09:17:59.504Z,12.10
2018-07-05T09:23:01.115Z,10.30
2018-07-05T09:28:02.574Z,16.07
2018-07-05T09:33:04.004Z,15.83
2018-07-05T09:38:05.453Z,10.27
2018-07-05T09:43:07.149Z,12.10
2018-07-05T09:48:08.603Z,9.20
2018-07-05T09:53:10.277Z,10.13
2018-07-05T09:58:11.959Z,11.63
2018-07-05T10:03:13.409Z,11.13
2018-07-05T10:08:16.038Z,10.90
2018-07-05T10:13:17.713Z,9.20
2018-07-05T10:18:19.091Z,7.17
2018-07-05T10:23:20.719Z,9.03
2018-07-05T10:28:22.153Z,10.00
2018-07-05T10:33:42.502Z,13.10
2018-07-05T10:38:44.204Z,9.00
2018-07-05T10:44:04.489Z,8.17
2018-07-05T10:49:24.904Z,8.77
2018-07-05T10:54:46.169Z,14.03
2018-07-05T11:00:06.852Z,10.00
2018-07-05T11:05:27.359Z,10.00
2018-07-05T11:10:47.527Z,10.70
2018-07-05T11:16:07.781Z,7.73
2018-07-05T11:21:28.060Z,13.03
2018-07-05T11:26:48.608Z,13.03
2018-07-05T11:32:09.108Z,11.70
2018-07-05T11:37:29.509Z,9.90
2018-07-05T11:42:50.045Z,6.00
2018-07-05T11:48:10.232Z,6.20
2018-07-05T11:53:30.461Z,5.83
2018-07-05T11:58:50.776Z,6.93
2018-07-05T12:04:11.307Z,7.97
2018-07-05T12:09:31.912Z,8.30
2018-07-05T12:14:52.248Z,10.87
2018-07-05T12:20:12.776Z,16.33
2018-07-05T12:25:33.291Z,6.77
2018-07-05T12:30:53.655Z,5.60
2018-07-05T12:36:14.147Z,5.00
2018-07-05T12:41:34.572Z,7.77
2018-07-05T12:46:54.732Z,6.17
2018-07-05T12:52:15.193Z,3.07
2018-07-05T12:57:35.525Z,4.50
2018-07-05T13:02:55.976Z,5.53
2018-07-05T13:08:16.424Z,4.77
2018-07-05T13:13:36.664Z,7.77
2018-07-05T13:18:57.320Z,5.10
2018-07-05T13:24:17.471Z,6.27
2018-07-05T13:29:37.578Z,4.00
2018-07-05T13:34:57.972Z,4.20
2018-07-05T13:40:18.812Z,5.00
2018-07-05T13:45:39.217Z,6.23
2018-07-05T13:50:59.417Z,5.20
2018-07-05T13:56:19.633Z,7.47
2018-07-05T14:01:40.139Z,8.30
2018-07-05T14:07:00.540Z,9.40
2018-07-05T14:12:20.791Z,6.80
2018-07-05T14:17:41.026Z,6.47
2018-07-05T14:23:01.439Z,10.17
2018-07-05T14:28:21.718Z,6.83
2018-07-05T14:33:41.983Z,9.47
2018-07-05T14:39:02.337Z,5.77
2018-07-05T14:44:22.400Z,7.20
2018-07-05T14:49:42.554Z,6.27
2018-07-05T14:55:02.938Z,5.37
2018-07-05T15:00:23.235Z,7.07
2018-07-05T15:05:43.804Z,6.20
2018-07-05T15:11:04.318Z,5.53
2018-07-05T15:16:24.670Z,4.47
2018-07-05T15:21:45.194Z,4.63
2018-07-05T15:27:05.557Z,5.37
2018-07-05T15:32:25.889Z,5.77
2018-07-05T15:37:46.539Z,8.83
2018-07-05T15:43:06.924Z,6.00
2018-07-05T15:48:27.323Z,5.60
2018-07-05T15:53:47.843Z,7.33
2018-07-05T15:59:07.972Z,6.93
2018-07-05T16:04:28.504Z,5.73
2018-07-05T16:09:49.033Z,4.83
2018-07-05T16:15:09.296Z,4.50
2018-07-05T16:20:29.891Z,6.03
2018-07-05T16:25:50.159Z,8.33
2018-07-05T16:31:10.550Z,4.40
2018-07-05T16:36:30.725Z,4.50
2018-07-05T16:41:51.220Z,5.20
2018-07-05T16:47:11.589Z,6.97
2018-07-05T16:52:31.981Z,7.03
2018-07-05T16:57:52.611Z,5.57
2018-07-05T17:03:13.105Z,6.33
2018-07-05T17:08:33.361Z,8.20
2018-07-05T17:13:53.751Z,6.77
2018-07-05T17:19:14.066Z,11.87
2018-07-05T17:24:34.680Z,7.60
2018-07-05T17:29:55.077Z,8.30
2018-07-05T17:35:15.496Z,8.03
2018-07-05T17:40:35.883Z,10.67
2018-07-05T17:45:56.295Z,11.20
2018-07-05T17:51:16.517Z,11.93
2018-07-05T17:56:37.126Z,9.47
2018-07-05T18:01:57.577Z,11.83
2018-07-05T18:07:18.014Z,14.20
2018-07-05T18:12:38.564Z,12.87
2018-07-05T18:17:58.983Z,16.37
2018-07-05T18:23:19.625Z,15.97
2018-07-05T18:28:39.916Z,20.03
2018-07-05T18:34:00.674Z,13.93
2018-07-05T18:39:20.970Z,13.33
2018-07-05T18:44:35.554Z,12.57
2018-07-05T18:49:55.778Z,14.87
2018-07-05T18:55:16.031Z,15.37
2018-07-05T19:00:36.443Z,18.43
2018-07-05T19:05:56.645Z,16.70
2018-07-05T19:11:17.181Z,17.77
2018-07-05T19:16:37.582Z,17.10
2018-07-05T19:21:57.704Z,17.10
2018-07-05T19:27:17.987Z,18.50
2018-07-05T19:32:38.641Z,22.80
2018-07-05T19:37:59.240Z,15.10
2018-07-05T19:43:19.659Z,19.43
2018-07-05T19:48:40.172Z,16.27
2018-07-05T19:54:00.571Z,16.90
2018-07-05T19:59:20.994Z,19.47
2018-07-05T20:04:41.327Z,16.80
2018-07-05T20:10:01.829Z,16.63
2018-07-05T20:15:22.304Z,14.67
2018-07-05T20:20:42.838Z,14.77
2018-07-05T20:26:03.137Z,25.03
2018-07-05T20:31:23.711Z,16.77
2018-07-05T20:36:44.509Z,24.07
2018-07-05T20:42:05.221Z,14.40
2018-07-05T20:47:25.857Z,14.47
2018-07-05T20:52:46.541Z,15.10
2018-07-05T20:58:06.757Z,13.87
2018-07-05T21:03:27.033Z,19.43
2018-07-05T21:08:47.478Z,14.10
2018-07-05T21:14:08.013Z,14.50
2018-07-05T21:19:28.341Z,12.97
2018-07-05T21:24:48.753Z,13.60
2018-07-05T21:30:09.303Z,13.10
2018-07-05T21:35:29.643Z,13.70
2018-07-05T21:40:50.192Z,14.93
2018-07-05T21:46:10.680Z,15.83
2018-07-05T21:51:31.067Z,17.87
2018-07-05T21:56:51.235Z,18.60
2018-07-05T22:02:11.665Z,14.83
2018-07-05T22:07:31.839Z,13.77
2018-07-05T22:12:52.302Z,15.03
2018-07-05T22:18:18.476Z,14.63
2018-07-05T22:23:44.517Z,12.37
2018-07-05T22:29:10.628Z,13.53
2018-07-05T22:34:31.155Z,19.80
2018-07-05T22:39:51.564Z,19.90
2018-07-05T22:45:11.752Z,15.13
2018-07-05T22:50:32.765Z,15.13
2018-07-05T22:55:53.968Z,15.77
2018-07-05T23:01:14.820Z,14.57
2018-07-05T23:06:35.484Z,15.57
2018-07-05T23:11:56.048Z,14.50
2018-07-05T23:17:16.506Z,15.40
2018-07-05T23:22:36.916Z,13.27
2018-07-05T23:27:57.361Z,14.53
2018-07-05T23:33:17.545Z,15.07
2018-07-05T23:38:37.947Z,14.83
2018-07-05T23:43:58.290Z,13.93
2018-07-05T23:49:18.584Z,16.07
2018-07-05T23:54:39.064Z,15.17
2018-07-05T23:59:59.437Z,13.73
